KAST/AST METAR and TAF weather

Enter ICAO airport designator
Station Type Date Time Source
KAST METAR 2021/05/14 23:32 UTC NOAA

KAST 142332Z AUTO 31017KT 10SM SCT008 13/09 A3014 RMK AO2 T01280094


Station Type Date Time Source
KAST Decoded METAR 2021/05/14 23:32 UTC NOAA

PORT OF ASTORIA AIRPORT, OR, United States (KAST) 46-09N 123-53W 3M
May 14, 2021 - 07:32 PM EDT / 2021.05.14 2332 UTC
Wind: from the NW (310 degrees) at 20 MPH (17 KT):0
Visibility: 10 mile(s):0
Sky conditions: partly cloudy
Temperature: 55.0 F (12.8 C)
Dew Point: 48.9 F (9.4 C)
Relative Humidity: 79%
Pressure (altimeter): 30.14 in. Hg (1020 hPa)
ob: KAST 142332Z AUTO 31017KT 10SM SCT008 13/09 A3014 RMK AO2 T01280094
cycle: 23

Station Type Date Time Source
KAST TAF 2021/05/14 23:45 UTC NOAA

TAF
AMD KAST 142241Z 1423/1518 30016G22KT P6SM OVC009
FM150200 31015G21KT P6SM OVC006
FM150500 31009KT P6SM OVC005
FM150900 31006KT P6SM OVC003

Example: see airport list